Time;durP1;ratioP1;P1;durP2;ratioP2;P2;SDS_P1;SDS_P2;PMS_P1;PMS_P2;Temp;Humidity;BMP_temperature;BMP_pressure;BME280_temperature;BME280_humidity;BME280_pressure;Samples;Min_cycle;Max_cycle;Signal;HPM_P1;HPM_P2
2022/01/05 00:01:29;;;;;;;6.27;5.50;;;;;;;2.09;92.43;99231.84;5015413;28;20532;-46
2022/01/05 00:03:57;;;;;;;13.17;6.13;;;;;;;2.08;92.54;99227.59;5015051;28;20576;-48
2022/01/05 00:06:25;;;;;;;6.80;6.30;;;;;;;2.08;92.07;99225.78;5015263;28;20459;-46
2022/01/05 00:08:52;;;;;;;6.17;5.40;;;;;;;2.06;92.47;99211.97;5015198;28;20464;-43
2022/01/05 00:11:20;;;;;;;8.80;6.17;;;;;;;2.02;93.02;99200.19;5015220;28;20433;-47
2022/01/05 00:13:49;;;;;;;9.93;5.30;;;;;;;1.98;93.61;99200.72;5015027;28;20825;-43
2022/01/05 00:16:17;;;;;;;6.43;5.90;;;;;;;1.93;93.92;99197.81;5015063;28;20544;-43
2022/01/05 00:18:44;;;;;;;6.40;6.00;;;;;;;1.87;93.71;99193.28;5014840;28;20538;-46
2022/01/05 00:21:12;;;;;;;9.60;6.73;;;;;;;1.84;93.55;99188.38;5015184;28;20433;-43
2022/01/05 00:23:39;;;;;;;10.10;6.67;;;;;;;1.80;93.33;99180.03;5015008;28;20477;-43
2022/01/05 00:26:07;;;;;;;8.07;6.50;;;;;;;1.78;93.38;99189.09;5015519;28;20459;-43
2022/01/05 00:28:35;;;;;;;8.63;7.27;;;;;;;1.73;92.81;99187.00;5016019;28;20472;-42
2022/01/05 00:31:04;;;;;;;23.93;7.00;;;;;;;1.71;92.00;99191.59;5015946;28;20433;-43
2022/01/05 00:33:31;;;;;;;10.83;6.30;;;;;;;1.70;91.97;99189.16;5015577;28;20807;-44
2022/01/05 00:35:59;;;;;;;10.50;6.27;;;;;;;1.70;91.59;99184.72;5014927;28;20469;-44
2022/01/05 00:38:27;;;;;;;7.50;6.43;;;;;;;1.68;91.03;99192.78;5014468;28;20561;-43
2022/01/05 00:40:54;;;;;;;11.90;5.97;;;;;;;1.67;90.06;99177.22;5014658;28;20437;-42
2022/01/05 00:43:22;;;;;;;14.77;9.20;;;;;;;1.67;90.06;99170.13;5011851;28;20498;-43
2022/01/05 00:45:49;;;;;;;10.87;6.30;;;;;;;1.65;89.66;99163.41;5013591;28;21054;-42
2022/01/05 00:48:19;;;;;;;13.13;6.63;;;;;;;1.64;89.35;99157.34;5014395;28;20469;-43
2022/01/05 00:50:46;;;;;;;11.10;7.43;;;;;;;1.62;89.69;99155.88;5014650;28;20855;-43
2022/01/05 00:53:14;;;;;;;14.27;7.50;;;;;;;1.59;89.40;99159.69;5014214;28;20437;-43
2022/01/05 00:55:42;;;;;;;8.70;6.50;;;;;;;1.60;88.95;99163.13;5014360;28;20544;-42
2022/01/05 00:58:09;;;;;;;11.90;7.37;;;;;;;1.63;88.16;99175.91;5014276;28;20479;-43
2022/01/05 01:00:37;;;;;;;10.80;6.73;;;;;;;1.73;85.66;99173.88;5014650;28;20438;-44
2022/01/05 01:03:05;;;;;;;13.87;6.30;;;;;;;1.79;84.60;99174.97;5014029;28;20560;-43
2022/01/05 01:05:34;;;;;;;16.70;6.67;;;;;;;1.85;84.67;99174.25;5014352;28;20489;-43
2022/01/05 01:08:02;;;;;;;11.00;5.47;;;;;;;1.89;85.66;99159.75;5013838;28;20817;-43
2022/01/05 01:10:29;;;;;;;9.67;5.97;;;;;;;1.89;87.45;99160.56;5014136;28;20535;-43
2022/01/05 01:12:57;;;;;;;10.23;6.60;;;;;;;1.90;88.83;99151.69;5014182;28;20441;-43
2022/01/05 01:15:25;;;;;;;14.87;6.50;;;;;;;1.91;91.47;99149.88;5014184;28;20549;-43
2022/01/05 01:17:53;;;;;;;15.80;6.37;;;;;;;1.95;91.91;99148.50;5013736;28;20467;-43
2022/01/05 01:20:21;;;;;;;10.53;6.63;;;;;;;1.98;92.07;99133.19;5014112;28;20429;-43
2022/01/05 01:22:51;;;;;;;7.00;5.40;;;;;;;2.01;93.25;99132.00;5013560;28;20483;-43
2022/01/05 01:25:19;;;;;;;8.33;5.90;;;;;;;2.04;94.57;99135.09;5013864;28;20453;-43
2022/01/05 01:27:47;;;;;;;7.63;5.83;;;;;;;2.05;95.54;99126.22;5013632;28;20544;-43
2022/01/05 01:30:14;;;;;;;10.73;6.33;;;;;;;2.04;96.09;99127.22;5013965;28;20516;-43
2022/01/05 01:32:42;;;;;;;6.00;5.60;;;;;;;2.02;96.18;99126.59;5013713;28;20440;-42
2022/01/05 01:35:10;;;;;;;6.73;6.00;;;;;;;2.02;96.17;99118.69;5013312;28;21048;-44
2022/01/05 01:37:38;;;;;;;11.27;5.90;;;;;;;1.99;95.71;99108.53;5013019;28;20426;-43
2022/01/05 01:40:09;;;;;;;12.63;5.87;;;;;;;1.99;95.34;99111.16;5013813;28;20516;-43
2022/01/05 01:42:37;;;;;;;9.93;7.03;;;;;;;2.00;94.60;99123.31;5013387;28;20433;-43
2022/01/05 01:45:05;;;;;;;13.33;7.47;;;;;;;2.04;93.90;99124.59;5013374;28;20948;-42
2022/01/05 01:47:33;;;;;;;10.10;6.93;;;;;;;2.07;92.90;99113.69;5013229;28;20433;-42
2022/01/05 01:50:01;;;;;;;14.50;7.33;;;;;;;2.11;91.86;99116.78;5013306;28;20425;-42
2022/01/05 01:52:28;;;;;;;12.90;6.97;;;;;;;2.16;91.02;99117.06;5013135;28;20438;-42
2022/01/05 01:54:56;;;;;;;16.90;6.90;;;;;;;2.23;90.08;99116.16;5013401;28;20511;-42
2022/01/05 01:57:28;;;;;;;14.47;6.80;;;;;;;2.29;89.71;99135.66;5013030;28;20873;-43
2022/01/05 01:59:57;;;;;;;11.47;6.80;;;;;;;2.37;90.23;99117.13;5013254;28;20425;-44
2022/01/05 02:02:25;;;;;;;13.60;7.83;;;;;;;2.45;90.24;99109.13;5013079;28;20437;-43
2022/01/05 02:04:54;;;;;;;13.90;6.73;;;;;;;2.45;91.43;99105.69;5013205;28;20839;-44
2022/01/05 02:07:22;;;;;;;18.63;7.00;;;;;;;2.43;91.63;99086.63;5013297;28;20444;-43
2022/01/05 02:09:49;;;;;;;14.33;7.93;;;;;;;2.45;91.92;99084.66;5012948;28;20452;-44
2022/01/05 02:12:17;;;;;;;25.20;8.00;;;;;;;2.43;92.79;99076.09;5013010;28;20425;-44
2022/01/05 02:14:46;;;;;;;12.60;6.53;;;;;;;2.42;93.13;99067.41;5012763;28;20477;-43
2022/01/05 02:17:20;;;;;;;19.50;8.00;;;;;;;2.40;93.23;99064.16;5012923;28;20433;-43
2022/01/05 02:19:48;;;;;;;13.67;6.70;;;;;;;2.39;93.19;99062.50;5012510;28;20837;-43
2022/01/05 02:22:17;;;;;;;7.10;6.30;;;;;;;2.41;93.11;99064.97;5012859;28;20796;-45
2022/01/05 02:24:47;;;;;;;18.90;6.67;;;;;;;2.42;92.43;99063.97;5012628;28;20949;-43
2022/01/05 02:27:15;;;;;;;12.30;7.87;;;;;;;2.48;92.12;99079.03;5013202;28;20464;-43
2022/01/05 02:29:44;;;;;;;15.00;7.37;;;;;;;2.50;93.23;99069.13;5012420;28;21026;-43
2022/01/05 02:32:12;;;;;;;8.87;8.03;;;;;;;2.57;93.91;99060.28;5012776;28;20866;-43
2022/01/05 02:34:40;;;;;;;13.10;7.30;;;;;;;2.60;94.97;99057.28;5012455;28;20483;-45
2022/01/05 02:37:07;;;;;;;18.80;8.50;;;;;;;2.62;95.81;99050.03;5032687;23;20598;-43
2022/01/05 02:39:36;;;;;;;11.03;6.70;;;;;;;2.67;95.45;99050.28;5031644;28;20908;-43
2022/01/05 02:42:05;;;;;;;13.10;7.17;;;;;;;2.68;95.62;99043.19;5032057;28;20510;-42
2022/01/05 02:44:33;;;;;;;8.80;6.30;;;;;;;2.72;94.89;99047.06;5029041;28;20443;-45
2022/01/05 02:47:01;;;;;;;16.30;6.77;;;;;;;2.73;95.54;99036.38;5031129;28;20467;-43
2022/01/05 02:49:29;;;;;;;9.10;6.80;;;;;;;2.74;95.57;99031.91;5030725;28;20491;-44
2022/01/05 02:51:56;;;;;;;14.67;7.30;;;;;;;2.72;95.82;99037.34;5031185;28;20436;-45
2022/01/05 02:54:24;;;;;;;10.60;6.80;;;;;;;2.75;95.11;99023.81;5031614;28;20476;-43
2022/01/05 02:56:53;;;;;;;14.50;7.30;;;;;;;2.75;94.77;99028.25;5031837;28;20452;-44
2022/01/05 02:59:21;;;;;;;13.07;6.87;;;;;;;2.76;93.41;99027.28;5031448;28;20543;-44
2022/01/05 03:01:48;;;;;;;10.67;7.33;;;;;;;2.80;91.72;99031.16;5031865;28;20892;-44
2022/01/05 03:04:17;;;;;;;10.10;6.60;;;;;;;2.83;90.75;99015.00;5031710;28;20459;-42
2022/01/05 03:06:44;;;;;;;7.23;6.30;;;;;;;2.86;89.39;99013.81;5031831;28;20539;-42
2022/01/05 03:09:12;;;;;;;14.07;7.07;;;;;;;2.92;88.97;99011.25;5030868;28;20468;-44
2022/01/05 03:11:40;;;;;;;13.50;6.20;;;;;;;2.94;88.66;99003.94;5030895;28;20436;-45
2022/01/05 03:14:09;;;;;;;9.30;7.23;;;;;;;2.95;87.95;99002.13;5030811;28;20841;-42
2022/01/05 03:16:36;;;;;;;25.20;8.33;;;;;;;2.97;87.45;99000.13;5030887;28;20456;-47
2022/01/05 03:19:04;;;;;;;23.73;7.90;;;;;;;2.98;86.99;99004.38;5030497;28;20777;-45
2022/01/05 03:21:32;;;;;;;14.53;7.57;;;;;;;2.99;87.26;99019.16;5030849;28;20535;-46
2022/01/05 03:23:59;;;;;;;19.03;7.20;;;;;;;2.99;86.28;99004.19;5030975;28;20941;-42
2022/01/05 03:26:27;;;;;;;24.23;9.20;;;;;;;3.04;85.83;99011.53;5031753;28;20436;-46
2022/01/05 03:28:54;;;;;;;13.17;7.20;;;;;;;3.07;83.78;99008.53;5031215;28;20468;-47
2022/01/05 03:31:23;;;;;;;19.47;6.23;;;;;;;3.11;83.43;98999.22;5031673;28;20535;-43
2022/01/05 03:33:51;;;;;;;12.70;8.97;;;;;;;3.13;82.81;98991.94;5031425;28;20821;-45
2022/01/05 03:36:19;;;;;;;13.10;7.83;;;;;;;3.16;81.64;98997.66;5031103;28;20428;-46
2022/01/05 03:38:47;;;;;;;19.80;7.37;;;;;;;3.21;81.28;98990.00;5031011;28;20492;-44
2022/01/05 03:41:14;;;;;;;16.97;7.63;;;;;;;3.27;81.32;98993.66;5031709;28;20424;-46
2022/01/05 03:43:42;;;;;;;13.80;7.30;;;;;;;3.30;81.40;98999.38;5028776;28;20941;-42
2022/01/05 03:46:09;;;;;;;12.90;7.80;;;;;;;3.33;80.86;99003.44;5015709;28;20431;-44
2022/01/05 03:48:38;;;;;;;11.87;7.67;;;;;;;3.33;80.88;98993.72;5030426;28;20483;-49
2022/01/05 03:51:06;;;;;;;11.23;7.50;;;;;;;3.37;80.31;99003.88;5031694;28;20478;-43
2022/01/05 03:53:34;;;;;;;11.43;7.40;;;;;;;3.34;80.79;99002.44;5031281;28;20443;-45
2022/01/05 03:56:01;;;;;;;8.93;5.93;;;;;;;3.29;81.13;99007.44;5031400;28;20482;-43
2022/01/05 03:58:29;;;;;;;8.20;5.83;;;;;;;3.30;81.36;99009.09;5030765;28;20466;-46
2022/01/05 04:00:57;;;;;;;12.50;6.27;;;;;;;3.25;82.41;99016.75;5031375;28;20442;-44
2022/01/05 04:03:25;;;;;;;7.43;5.17;;;;;;;3.22;82.55;99017.97;5031006;28;20510;-43
2022/01/05 04:05:54;;;;;;;5.70;5.33;;;;;;;3.19;83.85;99025.44;5029966;28;20478;-43
2022/01/05 04:08:21;;;;;;;4.60;4.23;;;;;;;3.11;83.32;99021.09;5029146;28;20468;-42
2022/01/05 04:10:49;;;;;;;5.17;4.87;;;;;;;3.10;83.66;99021.31;5029892;28;20432;-44
2022/01/05 04:13:17;;;;;;;5.03;4.70;;;;;;;3.02;84.51;99013.53;5030364;28;20949;-46
2022/01/05 04:15:45;;;;;;;4.93;4.47;;;;;;;2.94;85.13;99013.66;5031034;28;20435;-47
2022/01/05 04:18:13;;;;;;;10.20;5.20;;;;;;;2.91;84.40;99016.69;5030682;28;20464;-47
2022/01/05 04:20:40;;;;;;;6.37;5.70;;;;;;;2.88;83.13;99009.16;5031116;28;20438;-46
2022/01/05 04:23:09;;;;;;;6.27;5.87;;;;;;;2.87;81.16;98997.00;5034367;28;20450;-48
2022/01/05 04:25:37;;;;;;;7.20;5.90;;;;;;;2.85;77.81;98999.00;5034798;28;20566;-47
2022/01/05 04:28:05;;;;;;;7.03;6.00;;;;;;;2.91;73.07;99009.59;5034150;28;20467;-49
2022/01/05 04:30:33;;;;;;;9.10;7.07;;;;;;;2.97;69.36;99008.03;5034489;28;20428;-47
2022/01/05 04:33:01;;;;;;;8.20;7.30;;;;;;;3.05;68.39;98994.72;5034615;28;20787;-46
2022/01/05 04:35:48;;;;;;;11.97;7.57;;;;;;;3.11;67.25;99004.47;5034501;28;20428;-47
2022/01/05 04:38:17;;;;;;;12.60;6.77;;;;;;;3.15;66.54;99011.81;5033870;28;20468;-45
2022/01/05 04:40:45;;;;;;;7.73;6.93;;;;;;;3.22;66.06;99011.88;5034366;28;20432;-44
2022/01/05 04:43:13;;;;;;;11.83;7.20;;;;;;;3.29;65.04;99013.53;5032040;28;20472;-47
2022/01/05 04:45:41;;;;;;;16.50;6.60;;;;;;;3.32;65.57;99001.81;5026270;28;20472;-42
2022/01/05 04:48:08;;;;;;;13.70;6.80;;;;;;;3.33;65.70;99008.72;5033841;28;20550;-46
2022/01/05 04:50:36;;;;;;;11.53;6.83;;;;;;;3.34;66.71;99005.06;5034377;28;20975;-47
2022/01/05 04:53:04;;;;;;;12.97;7.10;;;;;;;3.33;68.33;99000.81;5033987;28;20475;-45
2022/01/05 04:55:33;;;;;;;10.10;6.90;;;;;;;3.33;69.22;99017.44;5034132;28;20428;-47
2022/01/05 04:58:00;;;;;;;7.47;6.70;;;;;;;3.35;69.19;99009.31;5033758;28;20464;-46
2022/01/05 05:00:28;;;;;;;7.20;6.50;;;;;;;3.38;69.77;99022.09;5034216;28;20439;-46
2022/01/05 05:02:56;;;;;;;6.37;5.80;;;;;;;3.41;70.87;99011.19;5033786;28;20447;-45
2022/01/05 05:05:24;;;;;;;7.77;6.97;;;;;;;3.43;72.59;99025.00;5033961;28;20472;-46
2022/01/05 05:07:51;;;;;;;11.27;6.40;;;;;;;3.47;73.79;99015.69;5033370;28;20999;-47
2022/01/05 05:10:19;;;;;;;9.40;5.70;;;;;;;3.47;74.38;99012.22;5034081;28;20847;-45
2022/01/05 05:12:48;;;;;;;6.97;6.33;;;;;;;3.46;76.16;99011.44;5033780;28;20432;-44
2022/01/05 05:15:16;;;;;;;10.07;6.97;;;;;;;3.49;76.55;99013.69;5033910;28;20424;-47
2022/01/05 05:17:44;;;;;;;10.43;7.50;;;;;;;3.50;77.25;99015.31;5033078;28;20547;-48
2022/01/05 05:20:12;;;;;;;13.07;7.40;;;;;;;3.52;77.21;99021.22;5033649;28;20434;-49
2022/01/05 05:22:40;;;;;;;13.87;7.10;;;;;;;3.52;77.20;99021.22;5033387;28;20940;-46
2022/01/05 05:25:09;;;;;;;9.80;6.40;;;;;;;3.52;76.77;99023.84;5033701;28;20528;-48
2022/01/05 05:27:36;;;;;;;7.00;6.40;;;;;;;3.56;77.41;99019.81;5032935;28;20456;-47
2022/01/05 05:30:25;;;;;;;6.80;6.30;;;;;;;3.57;79.38;99010.91;5033700;28;20425;-45
2022/01/05 05:32:54;;;;;;;9.03;6.60;;;;;;;3.55;80.13;99018.19;5032885;28;20812;-44
2022/01/05 05:35:22;;;;;;;7.73;6.83;;;;;;;3.54;81.12;99010.47;5033488;28;20424;-44
2022/01/05 05:37:50;;;;;;;9.20;7.20;;;;;;;3.48;82.27;99005.97;5032827;28;20866;-49
2022/01/05 05:40:18;;;;;;;10.73;6.87;;;;;;;3.46;82.51;99015.91;5033373;28;20532;-45
2022/01/05 05:42:46;;;;;;;8.33;7.50;;;;;;;3.40;81.37;99014.84;5030599;28;20434;-47
2022/01/05 05:45:13;;;;;;;11.90;7.10;;;;;;;3.39;80.74;99015.84;5024916;28;20439;-48
2022/01/05 05:47:43;;;;;;;7.93;6.80;;;;;;;3.35;80.48;99022.50;5032780;28;20464;-44
2022/01/05 05:50:11;;;;;;;7.23;6.53;;;;;;;3.32;81.11;99025.50;5033245;28;20867;-45
2022/01/05 05:52:39;;;;;;;14.97;7.00;;;;;;;3.29;80.55;99024.06;5032940;28;20439;-43
2022/01/05 05:55:07;;;;;;;9.83;7.60;;;;;;;3.27;79.86;99031.38;5033055;28;20464;-46
2022/01/05 05:57:41;;;;;;;7.23;6.70;;;;;;;3.26;78.43;99024.47;5032480;28;20862;-45
2022/01/05 06:00:11;;;;;;;6.97;6.40;;;;;;;3.25;77.79;99025.50;5032668;28;20922;-45
2022/01/05 06:02:39;;;;;;;8.80;7.90;;;;;;;3.23;78.02;99030.13;5032836;28;20528;-44
2022/01/05 06:05:09;;;;;;;9.23;8.03;;;;;;;3.20;78.72;99032.31;5032737;28;20436;-45
2022/01/05 06:07:36;;;;;;;9.77;7.37;;;;;;;3.20;78.03;99022.59;5032156;28;20587;-46
2022/01/05 06:10:05;;;;;;;10.87;8.00;;;;;;;3.22;76.71;99028.50;5032808;28;20428;-47
2022/01/05 06:12:32;;;;;;;13.70;7.23;;;;;;;3.25;76.55;99028.13;5032394;28;20428;-44
2022/01/05 06:15:00;;;;;;;7.93;7.40;;;;;;;3.24;77.37;99029.13;5032609;28;21028;-45
2022/01/05 06:17:28;;;;;;;9.60;8.63;;;;;;;3.24;76.73;99029.13;5032174;28;20452;-49
2022/01/05 06:19:55;;;;;;;9.57;7.57;;;;;;;3.22;74.42;99032.94;5032535;28;20475;-46
2022/01/05 06:22:25;;;;;;;7.70;6.97;;;;;;;3.25;74.55;99025.50;5032591;28;20443;-44
2022/01/05 06:24:53;;;;;;;8.77;6.53;;;;;;;3.28;73.10;99022.47;5032414;28;20428;-46
2022/01/05 06:27:21;;;;;;;8.43;5.53;;;;;;;3.32;71.55;99025.50;5032553;28;20480;-45
2022/01/05 06:29:48;;;;;;;6.87;5.93;;;;;;;3.37;71.98;99022.31;5031946;28;20457;-43
2022/01/05 06:32:16;;;;;;;9.43;6.80;;;;;;;3.37;73.10;99020.50;5032383;28;20432;-44
2022/01/05 06:34:43;;;;;;;14.57;6.77;;;;;;;3.35;75.51;99020.69;5032169;28;20438;-48
2022/01/05 06:37:11;;;;;;;8.33;7.07;;;;;;;3.35;75.31;99022.50;5028934;28;20461;-44
2022/01/05 06:39:40;;;;;;;8.23;6.63;;;;;;;3.37;74.53;99028.41;5017497;28;20463;-43
2022/01/05 06:42:08;;;;;;;7.43;6.80;;;;;;;3.38;74.74;99034.47;5012563;28;20435;-46
2022/01/05 06:44:36;;;;;;;7.27;6.50;;;;;;;3.42;74.53;99033.91;5011748;28;20520;-46
2022/01/05 06:47:05;;;;;;;8.03;6.13;;;;;;;3.49;72.48;99039.22;5020212;28;20997;-45
2022/01/05 06:49:32;;;;;;;7.43;6.40;;;;;;;3.54;73.62;99035.00;5026714;28;20518;-43
2022/01/05 06:52:00;;;;;;;7.07;6.47;;;;;;;3.57;74.76;99039.88;5031991;28;20441;-43
2022/01/05 06:54:29;;;;;;;7.67;6.90;;;;;;;3.58;75.90;99041.53;5031163;28;20447;-44
2022/01/05 06:56:58;;;;;;;7.63;6.60;;;;;;;3.57;77.70;99036.44;5024070;28;20477;-43
2022/01/05 06:59:26;;;;;;;7.37;6.10;;;;;;;3.62;76.75;99034.03;5011815;28;20462;-48
2022/01/05 07:01:53;;;;;;;16.50;7.53;;;;;;;3.67;76.30;99032.47;5012071;28;20437;-47
2022/01/05 07:04:22;;;;;;;16.83;7.90;;;;;;;3.66;77.10;99030.81;5011956;28;20520;-45
2022/01/05 07:06:50;;;;;;;14.43;7.30;;;;;;;3.64;78.75;99037.31;5011795;28;20572;-47
2022/01/05 07:09:18;;;;;;;10.10;8.27;;;;;;;3.63;80.13;99043.56;5011232;28;20555;-44
2022/01/05 07:11:45;;;;;;;8.27;7.43;;;;;;;3.62;79.67;99053.28;5012195;28;20806;-43
2022/01/05 07:14:14;;;;;;;10.47;8.10;;;;;;;3.58;77.82;99053.88;5011897;28;20806;-49
2022/01/05 07:16:42;;;;;;;14.83;8.77;;;;;;;3.57;79.75;99060.97;5011878;28;20457;-49
2022/01/05 07:19:09;;;;;;;6.73;6.13;;;;;;;3.53;79.45;99072.91;5011445;28;20536;-47
2022/01/05 07:21:37;;;;;;;13.07;9.13;;;;;;;3.49;79.71;99062.94;5011917;28;20953;-44
2022/01/05 07:24:05;;;;;;;8.40;7.60;;;;;;;3.47;80.24;99063.13;5011383;28;20536;-48
2022/01/05 07:26:32;;;;;;;7.47;6.97;;;;;;;3.43;81.48;99064.53;5011958;28;20479;-48
2022/01/05 07:29:00;;;;;;;7.63;6.87;;;;;;;3.41;83.84;99063.06;5011307;28;20475;-42
2022/01/05 07:31:29;;;;;;;7.70;7.30;;;;;;;3.35;84.69;99065.47;5011282;28;20812;-45
2022/01/05 07:33:57;;;;;;;7.63;6.80;;;;;;;3.32;84.36;99059.75;5011551;28;20448;-47
2022/01/05 07:36:25;;;;;;;7.33;7.03;;;;;;;3.27;85.07;99052.44;5011641;28;20981;-45
2022/01/05 07:38:52;;;;;;;12.40;7.13;;;;;;;3.25;85.47;99053.66;5011330;28;20468;-42
2022/01/05 07:41:20;;;;;;;8.33;7.50;;;;;;;3.21;84.82;99055.84;5011917;28;20528;-44
2022/01/05 07:43:48;;;;;;;7.97;7.57;;;;;;;3.18;85.80;99064.13;5019532;28;20440;-42
2022/01/05 07:46:16;;;;;;;8.80;7.30;;;;;;;3.13;85.49;99058.63;5024087;28;20439;-46
2022/01/05 07:48:46;;;;;;;8.10;7.50;;;;;;;3.13;84.53;99066.53;5030936;28;20554;-45
2022/01/05 07:51:14;;;;;;;7.70;7.20;;;;;;;3.10;83.85;99066.91;5031662;28;20432;-45
2022/01/05 07:53:42;;;;;;;9.50;6.80;;;;;;;3.10;82.67;99066.91;5031183;28;20545;-47
2022/01/05 07:56:10;;;;;;;7.40;7.00;;;;;;;3.15;81.17;99077.66;5033647;28;20534;-50
2022/01/05 07:58:38;;;;;;;7.73;6.67;;;;;;;3.14;80.93;99072.56;5034603;28;20551;-48
2022/01/05 08:01:06;;;;;;;7.30;6.90;;;;;;;3.19;80.39;99081.56;5035414;28;20821;-48
2022/01/05 08:03:34;;;;;;;7.83;7.13;;;;;;;3.21;80.40;99069.00;5030027;28;20456;-44
2022/01/05 08:06:21;;;;;;;8.83;7.10;;;;;;;3.24;80.15;99079.16;5008975;28;20449;-46
2022/01/05 08:08:50;;;;;;;7.20;6.70;;;;;;;3.25;79.11;99075.53;5013043;28;20467;-45
2022/01/05 08:11:18;;;;;;;11.70;6.87;;;;;;;3.30;77.50;99075.78;5013111;28;20425;-44
2022/01/05 08:13:46;;;;;;;7.57;7.07;;;;;;;3.33;77.20;99083.28;5012861;28;20529;-44
2022/01/05 08:16:14;;;;;;;7.90;7.30;;;;;;;3.33;77.19;99082.47;5013116;28;20953;-45
2022/01/05 08:18:42;;;;;;;10.27;7.20;;;;;;;3.32;76.72;99080.84;5012741;28;20469;-44
2022/01/05 08:21:11;;;;;;;7.40;6.80;;;;;;;3.34;76.39;99074.38;5013025;28;20435;-44
2022/01/05 08:23:40;;;;;;;7.13;6.67;;;;;;;3.38;75.53;99071.34;5012365;28;20440;-42
2022/01/05 08:26:07;;;;;;;7.80;7.00;;;;;;;3.41;74.70;99074.44;5013052;28;20449;-44
2022/01/05 08:28:35;;;;;;;9.50;6.33;;;;;;;3.45;75.21;99080.94;5011841;28;20846;-44
2022/01/05 08:31:03;;;;;;;7.20;6.63;;;;;;;3.49;75.64;99076.13;5012918;28;20520;-44
2022/01/05 08:33:31;;;;;;;10.90;6.60;;;;;;;3.53;75.10;99072.06;5010195;28;20441;-45
2022/01/05 08:35:58;;;;;;;6.73;6.03;;;;;;;3.55;74.75;99076.19;5011665;28;20800;-46
2022/01/05 08:38:26;;;;;;;6.50;6.17;;;;;;;3.59;74.63;99082.66;5012255;28;20479;-45
2022/01/05 08:40:55;;;;;;;12.93;8.17;;;;;;;3.70;73.87;99081.34;5012328;28;20471;-46
2022/01/05 08:43:23;;;;;;;14.03;7.90;;;;;;;3.85;70.60;99088.13;5017668;28;20440;-45
2022/01/05 08:45:50;;;;;;;10.70;7.30;;;;;;;3.94;72.60;99091.44;5024220;28;20432;-45
2022/01/05 08:48:18;;;;;;;7.37;6.57;;;;;;;3.91;76.13;99082.06;5031941;28;20567;-44
2022/01/05 08:50:46;;;;;;;7.73;7.03;;;;;;;3.93;77.83;99081.88;5031543;28;20995;-43
2022/01/05 08:53:13;;;;;;;9.77;7.30;;;;;;;3.99;78.76;99078.47;5032024;28;20440;-44
2022/01/05 08:55:46;;;;;;;8.90;7.33;;;;;;;4.00;80.08;99080.13;5032422;28;20482;-45
2022/01/05 08:58:17;;;;;;;7.10;6.77;;;;;;;3.92;81.57;99073.16;5031783;28;20468;-43
2022/01/05 09:00:46;;;;;;;7.53;6.83;;;;;;;3.94;81.95;99080.06;5031782;28;20996;-47
2022/01/05 09:03:16;;;;;;;11.53;7.87;;;;;;;3.86;83.12;99078.38;5031502;28;20783;-45
2022/01/05 09:05:44;;;;;;;7.13;6.73;;;;;;;3.84;84.39;99073.31;5032344;28;20866;-43
2022/01/05 09:08:12;;;;;;;8.90;8.00;;;;;;;3.81;84.40;99073.72;5030892;28;20474;-43
2022/01/05 09:10:41;;;;;;;7.20;6.50;;;;;;;3.85;84.87;99074.94;5032027;28;20858;-44
2022/01/05 09:13:10;;;;;;;6.23;5.80;;;;;;;3.90;85.66;99069.09;5022194;28;20966;-45
2022/01/05 09:15:40;;;;;;;6.77;5.87;;;;;;;4.03;85.09;99081.53;5012142;28;20437;-45
2022/01/05 09:18:08;;;;;;;7.37;6.77;;;;;;;4.17;84.30;99070.84;5011529;28;20501;-43
2022/01/05 09:20:36;;;;;;;7.30;6.80;;;;;;;4.30;85.28;99083.31;5011774;28;20455;-43
2022/01/05 09:23:04;;;;;;;15.70;7.30;;;;;;;4.36;85.52;99071.97;5011633;28;20509;-46
2022/01/05 09:25:32;;;;;;;7.50;7.00;;;;;;;4.49;84.72;99072.00;5009819;28;20537;-46
2022/01/05 09:28:01;;;;;;;7.50;6.83;;;;;;;4.68;83.87;99060.69;5001389;28;20466;-43
2022/01/05 09:30:29;;;;;;;12.13;7.63;;;;;;;4.80;86.66;99068.84;5001862;28;20437;-44
2022/01/05 09:32:58;;;;;;;7.70;7.00;;;;;;;4.87;90.40;99064.34;5002202;28;20453;-44
2022/01/05 09:35:27;;;;;;;11.37;7.63;;;;;;;4.86;93.25;99052.19;5001925;28;20521;-45
2022/01/05 09:38:07;;;;;;;9.67;7.93;;;;;;;4.82;95.18;99053.59;5002079;28;20461;-43
2022/01/05 09:43:21;;;;;;;7.67;6.90;;;;;;;4.85;95.32;99079.59;5002183;28;20536;-45
2022/01/05 09:46:05;;;;;;;6.17;5.47;;;;;;;4.82;95.77;99087.94;5005201;28;20437;-44
2022/01/05 09:49:00;;;;;;;7.10;6.40;;;;;;;4.80;96.31;99085.50;5003945;28;20993;-44
2022/01/05 09:51:31;;;;;;;13.27;6.60;;;;;;;4.78;96.04;99070.88;5000278;28;20466;-43
2022/01/05 09:54:01;;;;;;;7.97;7.20;;;;;;;4.86;96.39;99087.34;5000953;28;20450;-46
2022/01/05 09:56:49;;;;;;;6.93;6.53;;;;;;;4.88;95.94;99082.66;5001922;28;20450;-45
2022/01/05 09:59:17;;;;;;;6.20;5.70;;;;;;;4.78;95.81;99076.94;5002538;28;20472;-44
2022/01/05 10:01:45;;;;;;;6.30;5.80;;;;;;;4.66;96.29;99083.81;5001779;28;20532;-44
2022/01/05 10:04:14;;;;;;;6.23;5.90;;;;;;;4.64;96.21;99091.13;5001325;28;20440;-43
2022/01/05 10:06:42;;;;;;;6.17;5.67;;;;;;;4.57;96.52;99089.50;5001250;28;20461;-43
2022/01/05 10:09:10;;;;;;;6.00;5.90;;;;;;;4.56;96.21;99086.03;4999923;28;20601;-44
2022/01/05 10:11:38;;;;;;;6.33;5.87;;;;;;;4.54;96.40;99082.75;5000370;28;20441;-44
2022/01/05 10:14:06;;;;;;;6.47;6.03;;;;;;;4.51;96.37;99083.16;5000648;28;20473;-48
2022/01/05 10:16:34;;;;;;;6.17;5.90;;;;;;;4.48;96.16;99083.53;5000865;28;20473;-46
2022/01/05 10:19:02;;;;;;;6.50;6.03;;;;;;;4.42;96.35;99085.16;5000394;28;20873;-44
2022/01/05 10:21:36;;;;;;;9.50;6.10;;;;;;;4.46;95.72;99077.66;5001110;28;20448;-48
2022/01/05 10:24:04;;;;;;;6.60;5.77;;;;;;;4.55;96.23;99070.38;5001110;28;20998;-43
2022/01/05 10:26:33;;;;;;;5.97;5.57;;;;;;;4.65;95.89;99073.47;5001033;28;20445;-43
2022/01/05 10:29:04;;;;;;;6.77;6.13;;;;;;;4.83;96.33;99082.47;5001640;28;20564;-46
2022/01/05 10:31:34;;;;;;;11.90;5.63;;;;;;;4.90;95.90;99075.34;5000746;28;20449;-47
2022/01/05 10:34:14;;;;;;;6.03;5.60;;;;;;;4.95;95.71;99065.00;5001202;28;20457;-43
2022/01/05 10:36:48;;;;;;;6.20;5.40;;;;;;;5.08;96.51;99066.03;5001430;28;20449;-46
2022/01/05 10:39:20;;;;;;;8.07;5.47;;;;;;;5.13;96.52;99072.34;4999853;28;20488;-44
2022/01/05 10:41:47;;;;;;;5.93;5.60;;;;;;;5.06;95.51;99076.78;5000361;28;20468;-50
2022/01/05 10:44:20;;;;;;;6.50;5.90;;;;;;;5.01;95.87;99079.25;4999313;28;20444;-43
2022/01/05 10:46:50;;;;;;;7.33;5.67;;;;;;;5.00;95.33;99088.97;5000127;28;20458;-45
2022/01/05 10:49:32;;;;;;;6.77;6.13;;;;;;;4.96;96.11;99089.56;4999884;28;20473;-49
2022/01/05 10:52:19;;;;;;;6.60;6.10;;;;;;;4.86;95.85;99097.09;4999865;28;20470;-44
2022/01/05 10:54:46;;;;;;;8.77;7.10;;;;;;;4.84;96.16;99088.53;5000007;28;20598;-45
2022/01/05 10:57:16;;;;;;;9.03;6.27;;;;;;;4.82;96.30;99101.13;4999688;28;20526;-47
2022/01/05 10:59:46;;;;;;;5.93;5.60;;;;;;;4.84;95.88;99097.28;5002532;28;20463;-43
2022/01/05 11:02:25;;;;;;;7.43;6.67;;;;;;;4.77;95.71;99107.03;5000927;28;20563;-44
2022/01/05 11:04:55;;;;;;;10.43;6.63;;;;;;;4.68;95.83;99117.97;5000149;28;20451;-46
2022/01/05 11:07:26;;;;;;;8.37;6.40;;;;;;;4.53;95.58;99118.09;4999494;28;20497;-47
2022/01/05 11:09:57;;;;;;;6.47;5.67;;;;;;;4.41;95.11;99112.56;5000046;28;20485;-48
2022/01/05 11:12:32;;;;;;;9.00;6.20;;;;;;;4.36;94.84;99112.34;4999399;28;20837;-45
2022/01/05 11:15:28;;;;;;;9.00;5.60;;;;;;;4.28;93.86;99115.16;4999844;28;20447;-43
2022/01/05 11:18:08;;;;;;;7.03;6.40;;;;;;;4.28;92.88;99120.44;4999263;28;20465;-43
2022/01/05 11:20:36;;;;;;;6.80;6.30;;;;;;;4.33;92.18;99110.09;5001447;28;20525;-48
2022/01/05 11:23:06;;;;;;;6.43;6.03;;;;;;;4.38;91.33;99112.97;5009160;28;20433;-45
2022/01/05 11:25:36;;;;;;;10.83;6.07;;;;;;;4.37;91.18;99108.69;5009659;28;20429;-44
2022/01/05 11:28:04;;;;;;;7.20;6.50;;;;;;;4.32;91.80;99110.28;5009237;28;20465;-46
2022/01/05 11:30:33;;;;;;;6.43;5.80;;;;;;;4.32;91.68;99108.47;5010432;28;20480;-43
2022/01/05 11:33:00;;;;;;;9.40;6.00;;;;;;;4.33;91.61;99112.72;5013055;28;20813;-44
2022/01/05 11:35:29;;;;;;;9.97;5.83;;;;;;;4.34;92.00;99105.63;5013061;28;20435;-43
2022/01/05 11:37:57;;;;;;;7.53;6.17;;;;;;;4.38;91.21;99112.97;5012823;28;21017;-43
2022/01/05 11:40:26;;;;;;;6.83;6.20;;;;;;;4.49;90.75;99119.50;5013368;28;20483;-45
2022/01/05 11:42:59;;;;;;;8.37;6.53;;;;;;;4.55;91.31;99116.06;5012753;28;20895;-45
2022/01/05 11:45:30;;;;;;;5.80;5.43;;;;;;;4.58;92.36;99123.59;5013597;28;20429;-44
2022/01/05 11:48:13;;;;;;;11.03;6.50;;;;;;;4.64;92.61;99122.81;5012920;28;20527;-46
2022/01/05 11:50:47;;;;;;;5.63;5.33;;;;;;;4.68;92.80;99133.78;5013587;28;20520;-44